createdAt,value
2018-05-16T00:00:09.018Z,6.72
2018-05-16T00:02:38.574Z,8.35
2018-05-16T00:05:07.668Z,9.98
2018-05-16T00:07:36.722Z,6.78
2018-05-16T00:10:04.992Z,6.95
2018-05-16T00:12:33.288Z,7.53
2018-05-16T00:15:01.524Z,7.18
2018-05-16T00:17:29.817Z,8.73
2018-05-16T00:19:58.076Z,8.82
2018-05-16T00:22:26.377Z,8.45
2018-05-16T00:24:54.676Z,10.32
2018-05-16T00:27:22.910Z,9.73
2018-05-16T00:29:51.218Z,9.20
2018-05-16T00:32:19.535Z,9.45
2018-05-16T00:34:48.597Z,13.15
2018-05-16T00:37:16.833Z,7.75
2018-05-16T00:39:45.137Z,10.15
2018-05-16T00:42:13.454Z,7.75
2018-05-16T00:44:41.765Z,9.38
2018-05-16T00:47:11.214Z,10.00
2018-05-16T00:49:40.357Z,9.05
2018-05-16T00:52:08.643Z,8.43
2018-05-16T00:54:36.955Z,9.55
2018-05-16T00:57:05.316Z,9.90
2018-05-16T00:59:33.619Z,7.12
2018-05-16T01:02:02.961Z,8.15
2018-05-16T01:04:31.253Z,8.82
2018-05-16T01:06:59.521Z,12.02
2018-05-16T01:09:28.938Z,9.18
2018-05-16T01:11:57.188Z,8.48
2018-05-16T01:14:25.490Z,8.97
2018-05-16T01:16:53.751Z,9.73
2018-05-16T01:19:22.779Z,10.13
2018-05-16T01:21:51.073Z,11.52
2018-05-16T01:24:20.109Z,9.63
2018-05-16T01:26:49.124Z,7.60
2018-05-16T01:29:17.409Z,9.18
2018-05-16T01:31:45.650Z,9.02
2018-05-16T01:34:13.964Z,10.85
2018-05-16T01:36:43.088Z,8.50
2018-05-16T01:39:11.377Z,12.80
2018-05-16T01:41:40.226Z,9.90
2018-05-16T01:44:08.528Z,8.37
2018-05-16T01:46:37.569Z,11.70
2018-05-16T01:49:17.707Z,9.38
2018-05-16T01:51:45.950Z,8.70
2018-05-16T01:54:15.019Z,7.95
2018-05-16T01:56:43.252Z,8.60
2018-05-16T01:59:15.257Z,11.15
2018-05-16T02:01:43.712Z,8.38
2018-05-16T02:04:12.011Z,9.38
2018-05-16T02:06:40.266Z,8.05
2018-05-16T02:09:08.541Z,8.18
2018-05-16T02:11:36.844Z,10.02
2018-05-16T02:14:05.961Z,11.07
2018-05-16T02:16:34.256Z,8.60
2018-05-16T02:19:03.726Z,9.20
2018-05-16T02:21:32.000Z,9.60
2018-05-16T02:24:00.273Z,9.18
2018-05-16T02:26:28.566Z,10.30
2018-05-16T02:28:56.833Z,10.53
2018-05-16T02:31:26.581Z,10.43
2018-05-16T02:33:54.845Z,9.80
2018-05-16T02:36:26.757Z,9.57
2018-05-16T02:38:55.127Z,8.27
2018-05-16T02:41:24.543Z,9.25
2018-05-16T02:43:52.921Z,10.32
2018-05-16T02:46:21.221Z,10.63
2018-05-16T02:48:49.489Z,10.07
2018-05-16T02:51:17.739Z,9.75
2018-05-16T02:53:46.923Z,9.88
2018-05-16T02:56:15.191Z,11.18
2018-05-16T02:58:43.462Z,10.33
2018-05-16T03:01:12.897Z,10.18
2018-05-16T03:03:41.994Z,10.90
2018-05-16T03:06:10.295Z,9.35
2018-05-16T03:08:38.576Z,11.10
2018-05-16T03:11:07.012Z,8.88
2018-05-16T03:13:35.953Z,8.77
2018-05-16T03:16:05.023Z,11.70
2018-05-16T03:18:34.220Z,14.85
2018-05-16T03:21:02.600Z,12.02
2018-05-16T03:23:30.870Z,9.60
2018-05-16T03:25:59.169Z,8.98
2018-05-16T03:28:28.237Z,9.63
2018-05-16T03:30:56.529Z,11.00
2018-05-16T03:33:24.801Z,9.90
2018-05-16T03:35:53.077Z,11.12
2018-05-16T03:38:21.348Z,9.30
2018-05-16T03:40:50.403Z,9.38
2018-05-16T03:43:18.666Z,11.82
2018-05-16T03:45:46.984Z,9.25
2018-05-16T03:48:15.265Z,10.40
2018-05-16T03:50:43.584Z,11.35
2018-05-16T03:53:13.688Z,9.07
2018-05-16T03:55:41.936Z,11.00
2018-05-16T03:58:22.879Z,8.95
2018-05-16T04:01:02.931Z,11.12
2018-05-16T04:03:43.164Z,11.63
2018-05-16T04:06:12.252Z,10.70
2018-05-16T04:08:41.308Z,10.10
2018-05-16T04:11:09.622Z,10.27
2018-05-16T04:13:38.690Z,12.70
2018-05-16T04:16:06.969Z,10.70
2018-05-16T04:18:35.337Z,11.25
2018-05-16T04:21:03.652Z,10.48
2018-05-16T04:23:32.712Z,11.57
2018-05-16T04:26:01.001Z,11.30
2018-05-16T04:28:29.341Z,10.90
2018-05-16T04:30:57.605Z,11.35
2018-05-16T04:33:26.796Z,14.38
2018-05-16T04:35:55.076Z,11.63
2018-05-16T04:38:24.647Z,11.77
2018-05-16T04:40:52.940Z,12.48
2018-05-16T04:43:21.960Z,12.02
2018-05-16T04:45:50.237Z,10.95
2018-05-16T04:48:18.483Z,11.93
2018-05-16T04:50:46.819Z,11.10
2018-05-16T04:53:15.219Z,11.02
2018-05-16T04:55:45.208Z,11.30
2018-05-16T04:58:13.508Z,10.55
2018-05-16T05:00:42.538Z,11.87
2018-05-16T05:03:10.856Z,11.23
2018-05-16T05:05:39.198Z,11.20
2018-05-16T05:08:07.477Z,11.93
2018-05-16T05:10:35.748Z,12.33
2018-05-16T05:13:04.065Z,11.90
2018-05-16T05:15:32.343Z,12.65
2018-05-16T05:18:00.657Z,13.23
2018-05-16T05:20:28.970Z,12.40
2018-05-16T05:22:57.277Z,12.55
2018-05-16T05:25:25.547Z,14.40
2018-05-16T05:27:53.899Z,11.45
2018-05-16T05:30:23.032Z,13.95
2018-05-16T05:32:51.263Z,12.05
2018-05-16T05:35:19.582Z,11.23
2018-05-16T05:37:47.873Z,14.25
2018-05-16T05:40:16.930Z,12.52
2018-05-16T05:42:45.946Z,13.60
2018-05-16T05:45:14.227Z,15.18
2018-05-16T05:47:42.502Z,12.50
2018-05-16T05:50:12.310Z,11.93
2018-05-16T05:52:41.711Z,12.80
2018-05-16T05:55:10.005Z,15.68
2018-05-16T05:57:38.280Z,18.92
2018-05-16T06:00:06.593Z,18.90
2018-05-16T06:02:35.590Z,12.18
2018-05-16T06:05:03.911Z,14.07
2018-05-16T06:07:32.173Z,12.52
2018-05-16T06:10:00.547Z,13.55
2018-05-16T06:12:30.654Z,13.18
2018-05-16T06:14:59.119Z,12.77
2018-05-16T06:17:27.361Z,11.85
2018-05-16T06:19:56.507Z,12.07
2018-05-16T06:22:24.729Z,12.52
2018-05-16T06:24:53.739Z,13.00
2018-05-16T06:27:22.248Z,12.35
2018-05-16T06:29:50.363Z,12.00
2018-05-16T06:32:18.695Z,12.05
2018-05-16T06:34:47.749Z,13.82
2018-05-16T06:37:16.053Z,14.38
2018-05-16T06:39:44.307Z,13.55
2018-05-16T06:42:13.378Z,16.08
2018-05-16T06:44:41.776Z,12.80
2018-05-16T06:47:10.038Z,13.93
2018-05-16T06:49:38.353Z,14.85
2018-05-16T06:52:06.645Z,13.20
2018-05-16T06:54:34.943Z,14.87
2018-05-16T06:57:03.243Z,13.95
2018-05-16T06:59:31.562Z,14.23
2018-05-16T07:01:59.809Z,13.53
2018-05-16T07:04:28.865Z,12.48
2018-05-16T07:06:57.269Z,14.10
2018-05-16T07:09:27.057Z,13.33
2018-05-16T07:11:55.323Z,12.48
2018-05-16T07:14:23.610Z,12.57
2018-05-16T07:16:51.921Z,12.95
2018-05-16T07:19:20.984Z,12.35
2018-05-16T07:21:50.282Z,12.88
2018-05-16T07:24:18.557Z,13.57
2018-05-16T07:26:46.800Z,12.88
2018-05-16T07:29:15.128Z,42.65
2018-05-16T07:31:43.401Z,11.68
2018-05-16T07:34:11.693Z,12.48
2018-05-16T07:36:40.768Z,13.38
2018-05-16T07:39:09.044Z,12.20
2018-05-16T07:41:37.339Z,13.00
2018-05-16T07:44:05.628Z,12.35
2018-05-16T07:46:33.945Z,10.88
2018-05-16T07:49:02.241Z,16.87
2018-05-16T07:51:30.499Z,11.20
2018-05-16T07:53:58.794Z,16.77
2018-05-16T07:56:27.083Z,44.30
2018-05-16T07:58:55.347Z,12.25
2018-05-16T08:01:23.649Z,12.15
2018-05-16T08:03:52.014Z,8.88
2018-05-16T08:06:20.377Z,9.27
2018-05-16T08:08:48.639Z,9.60
2018-05-16T08:11:16.919Z,12.85
2018-05-16T08:13:45.189Z,9.57
2018-05-16T08:16:14.359Z,8.93
2018-05-16T08:18:43.513Z,9.23
2018-05-16T08:21:11.775Z,8.10
2018-05-16T08:23:40.013Z,8.27
2018-05-16T08:26:11.100Z,10.30
2018-05-16T08:28:41.555Z,8.15
2018-05-16T08:31:10.577Z,9.07
2018-05-16T08:33:39.573Z,9.20
2018-05-16T08:36:08.631Z,9.00
2018-05-16T08:38:36.907Z,10.93
2018-05-16T08:41:05.184Z,9.68
2018-05-16T08:43:35.398Z,9.55
2018-05-16T08:46:03.688Z,9.07
2018-05-16T08:48:32.768Z,9.13
2018-05-16T08:51:01.419Z,9.20
2018-05-16T08:53:29.801Z,9.38
2018-05-16T08:55:57.970Z,9.57
2018-05-16T08:58:26.272Z,13.73
2018-05-16T09:00:55.318Z,9.85
2018-05-16T09:03:24.461Z,10.55
2018-05-16T09:05:52.741Z,9.27
2018-05-16T09:08:21.063Z,9.95
2018-05-16T09:10:50.068Z,11.35
2018-05-16T09:13:18.729Z,9.32
2018-05-16T09:15:47.816Z,10.20
2018-05-16T09:18:16.901Z,12.82
2018-05-16T09:20:45.155Z,9.80
2018-05-16T09:23:13.912Z,11.65
2018-05-16T09:25:42.192Z,11.88
2018-05-16T09:28:10.502Z,10.77
2018-05-16T09:30:38.781Z,11.02
2018-05-16T09:33:07.825Z,10.88
2018-05-16T09:35:36.720Z,10.60
2018-05-16T09:40:40.449Z,13.27
2018-05-16T09:43:08.978Z,11.98
2018-05-16T09:45:37.254Z,11.75
2018-05-16T09:48:05.502Z,8.65
2018-05-16T09:50:33.777Z,10.15
2018-05-16T09:53:02.841Z,10.13
2018-05-16T09:55:31.915Z,12.18
2018-05-16T09:58:00.941Z,9.32
2018-05-16T10:00:32.740Z,10.35
2018-05-16T10:03:01.008Z,9.73
2018-05-16T10:05:29.279Z,8.63
2018-05-16T10:07:57.572Z,11.00
2018-05-16T10:10:26.621Z,7.85
2018-05-16T10:12:55.170Z,12.02
2018-05-16T10:15:24.444Z,24.20
2018-05-16T10:17:52.677Z,6.75
2018-05-16T10:20:21.213Z,10.35
2018-05-16T10:22:49.481Z,7.85
2018-05-16T10:25:17.746Z,5.15
2018-05-16T10:27:45.986Z,7.53
2018-05-16T10:30:14.276Z,8.73
2018-05-16T10:32:42.583Z,12.70
2018-05-16T10:35:11.614Z,12.43
2018-05-16T10:37:39.942Z,6.40
2018-05-16T10:40:08.233Z,5.60
2018-05-16T10:42:37.275Z,5.07
2018-05-16T10:45:05.580Z,11.45
2018-05-16T10:47:34.677Z,8.60
2018-05-16T10:50:03.422Z,5.53
2018-05-16T10:52:32.487Z,8.60
2018-05-16T10:55:01.535Z,6.43
2018-05-16T10:57:29.851Z,7.43
2018-05-16T10:59:58.115Z,4.47
2018-05-16T11:02:26.400Z,8.27
2018-05-16T11:04:54.688Z,7.47
2018-05-16T11:07:23.721Z,7.47
2018-05-16T11:09:52.018Z,7.65
2018-05-16T11:12:20.328Z,5.32
2018-05-16T11:14:48.546Z,8.35
2018-05-16T11:17:16.849Z,5.47
2018-05-16T11:19:46.273Z,8.38
2018-05-16T11:22:14.569Z,9.27
2018-05-16T11:24:43.633Z,7.30
2018-05-16T11:27:12.715Z,7.18
2018-05-16T11:29:43.906Z,5.03
2018-05-16T11:32:12.127Z,7.07
2018-05-16T11:34:40.414Z,7.82
2018-05-16T11:37:08.684Z,5.82
2018-05-16T11:39:36.988Z,4.40
2018-05-16T11:42:05.257Z,4.68
2018-05-16T11:44:33.535Z,5.93
2018-05-16T11:47:01.779Z,5.33
2018-05-16T11:49:30.064Z,6.80
2018-05-16T11:51:59.252Z,10.07
2018-05-16T11:54:27.506Z,6.40
2018-05-16T11:56:55.834Z,6.87
2018-05-16T11:59:24.115Z,7.55
2018-05-16T12:01:53.805Z,8.63
2018-05-16T12:04:22.101Z,6.63
2018-05-16T12:06:51.617Z,10.27
2018-05-16T12:09:19.886Z,4.45
2018-05-16T12:11:48.250Z,4.70
2018-05-16T12:14:16.552Z,9.30
2018-05-16T12:16:46.502Z,4.90
2018-05-16T12:19:14.815Z,4.55
2018-05-16T12:21:43.184Z,9.40
2018-05-16T12:24:13.211Z,8.55
2018-05-16T12:26:41.519Z,7.37
2018-05-16T12:29:09.871Z,4.97
2018-05-16T12:31:38.059Z,5.07
2018-05-16T12:34:06.312Z,5.07
2018-05-16T12:36:34.613Z,6.75
2018-05-16T12:39:02.857Z,11.35
2018-05-16T12:44:06.696Z,5.75
2018-05-16T12:46:36.226Z,4.35
2018-05-16T12:49:05.279Z,6.28
2018-05-16T12:51:33.569Z,7.00
2018-05-16T12:54:01.868Z,6.80
2018-05-16T12:56:31.682Z,9.23
2018-05-16T12:59:00.765Z,5.47
2018-05-16T13:01:30.581Z,5.28
2018-05-16T13:03:59.630Z,5.43
2018-05-16T13:06:28.664Z,4.85
2018-05-16T13:08:56.937Z,5.20
2018-05-16T13:11:25.239Z,4.93
2018-05-16T13:13:54.293Z,7.62
2018-05-16T13:16:22.571Z,6.90
2018-05-16T13:18:51.671Z,5.68
2018-05-16T13:21:21.041Z,9.18
2018-05-16T13:23:49.237Z,4.53
2018-05-16T13:26:17.527Z,5.10
2018-05-16T13:28:50.031Z,7.50
2018-05-16T13:31:19.080Z,6.27
2018-05-16T13:33:47.348Z,4.00
2018-05-16T13:36:15.746Z,4.93
2018-05-16T13:38:44.712Z,8.70
2018-05-16T13:41:13.024Z,5.05
2018-05-16T13:43:41.262Z,6.25
2018-05-16T13:46:10.357Z,6.90
2018-05-16T13:48:38.593Z,8.30
2018-05-16T13:51:08.628Z,6.72
2018-05-16T13:53:37.691Z,6.80
2018-05-16T13:56:06.064Z,6.60
2018-05-16T13:58:34.299Z,9.10
2018-05-16T14:01:02.616Z,7.73
2018-05-16T14:03:30.973Z,9.10
2018-05-16T14:05:59.261Z,6.72
2018-05-16T14:08:27.571Z,5.72
2018-05-16T14:10:56.607Z,8.63
2018-05-16T14:13:26.589Z,7.82
2018-05-16T14:15:55.614Z,6.93
2018-05-16T14:18:23.862Z,5.60
2018-05-16T14:20:52.894Z,5.40
2018-05-16T14:23:21.203Z,8.10
2018-05-16T14:25:49.477Z,5.43
2018-05-16T14:28:17.714Z,6.43
2018-05-16T14:30:46.013Z,6.85
2018-05-16T14:33:14.338Z,11.23
2018-05-16T14:35:42.627Z,7.18
2018-05-16T14:38:10.924Z,8.82
2018-05-16T14:40:39.209Z,5.95
2018-05-16T14:43:07.497Z,5.30
2018-05-16T14:45:35.752Z,7.30
2018-05-16T14:48:04.027Z,5.95
2018-05-16T14:50:32.341Z,5.57
2018-05-16T14:53:02.091Z,5.75
2018-05-16T14:55:30.413Z,10.60
2018-05-16T14:57:58.698Z,6.40
2018-05-16T15:00:27.025Z,7.35
2018-05-16T15:02:55.292Z,5.97
2018-05-16T15:05:23.629Z,6.87
2018-05-16T15:07:51.919Z,5.40
2018-05-16T15:10:20.936Z,4.78
2018-05-16T15:12:50.045Z,6.00
2018-05-16T15:15:19.100Z,5.97
2018-05-16T15:17:48.158Z,4.75
2018-05-16T15:20:16.442Z,5.47
2018-05-16T15:22:45.120Z,8.57
2018-05-16T15:25:13.381Z,6.07
2018-05-16T15:27:42.645Z,4.82
2018-05-16T15:30:10.902Z,8.63
2018-05-16T15:32:39.988Z,7.25
2018-05-16T15:35:08.242Z,7.65
2018-05-16T15:37:36.545Z,7.90
2018-05-16T15:40:04.898Z,6.75
2018-05-16T15:42:33.140Z,6.12
2018-05-16T15:45:01.499Z,9.52
2018-05-16T15:47:30.509Z,6.25
2018-05-16T15:49:58.841Z,5.12
2018-05-16T15:52:27.106Z,7.47
2018-05-16T15:54:55.405Z,5.78
2018-05-16T15:57:24.693Z,6.15
2018-05-16T15:59:52.979Z,5.53
2018-05-16T16:02:21.247Z,5.22
2018-05-16T16:04:49.552Z,5.80
2018-05-16T16:07:19.866Z,7.27
2018-05-16T16:09:48.229Z,11.05
2018-05-16T16:12:16.529Z,7.20
2018-05-16T16:14:45.540Z,8.75
2018-05-16T16:17:13.836Z,8.05
2018-05-16T16:19:42.117Z,8.00
2018-05-16T16:22:10.349Z,8.82
2018-05-16T16:24:39.416Z,7.87
2018-05-16T16:27:07.690Z,6.35
2018-05-16T16:29:35.983Z,7.15
2018-05-16T16:32:04.364Z,9.25
2018-05-16T16:34:32.666Z,16.52
2018-05-16T16:37:01.004Z,13.30
2018-05-16T16:39:29.312Z,19.63
2018-05-16T16:41:58.364Z,17.02
2018-05-16T16:44:26.717Z,18.37
2018-05-16T16:46:55.033Z,17.03
2018-05-16T16:49:23.284Z,19.37
2018-05-16T16:51:51.565Z,19.73
2018-05-16T16:54:19.812Z,18.30
2018-05-16T16:56:48.148Z,13.35
2018-05-16T16:59:17.219Z,15.85
2018-05-16T17:01:45.487Z,20.17
2018-05-16T17:04:14.672Z,14.65
2018-05-16T17:06:43.483Z,21.10
2018-05-16T17:09:11.777Z,21.77
2018-05-16T17:11:40.098Z,17.05
2018-05-16T17:14:08.410Z,15.48
2018-05-16T17:16:37.426Z,17.05
2018-05-16T17:19:06.497Z,20.88
2018-05-16T17:21:34.776Z,19.25
2018-05-16T17:24:03.064Z,22.08
2018-05-16T17:26:31.371Z,17.25
2018-05-16T17:29:00.434Z,17.12
2018-05-16T17:31:28.717Z,16.48
2018-05-16T17:33:57.071Z,16.90
2018-05-16T17:36:25.369Z,18.73
2018-05-16T17:38:53.622Z,19.83
2018-05-16T17:41:22.865Z,18.30
2018-05-16T17:43:51.945Z,20.25
2018-05-16T17:46:20.302Z,20.92
2018-05-16T17:48:48.585Z,23.48
2018-05-16T17:51:16.913Z,17.35
2018-05-16T17:53:45.206Z,19.58
2018-05-16T17:56:14.258Z,22.20
2018-05-16T17:58:43.420Z,16.80
2018-05-16T18:01:11.706Z,19.25
2018-05-16T18:03:40.008Z,20.83
2018-05-16T18:06:09.083Z,19.83
2018-05-16T18:08:37.394Z,20.00
2018-05-16T18:11:06.442Z,20.93
2018-05-16T18:16:48.676Z,21.02
2018-05-16T18:19:17.236Z,16.40
2018-05-16T18:21:45.531Z,16.73
2018-05-16T18:24:13.809Z,23.83
2018-05-16T18:26:42.126Z,23.58
2018-05-16T18:29:10.474Z,19.05
2018-05-16T18:31:38.781Z,25.92
2018-05-16T18:34:07.829Z,22.95
2018-05-16T18:36:36.130Z,22.23
2018-05-16T18:39:05.174Z,24.40
2018-05-16T18:41:33.483Z,24.17
2018-05-16T18:44:01.780Z,23.00
2018-05-16T18:46:30.055Z,17.98
2018-05-16T18:48:58.369Z,17.33
2018-05-16T18:51:26.730Z,15.93
2018-05-16T18:53:55.088Z,18.45
2018-05-16T18:56:23.454Z,23.40
2018-05-16T18:58:51.727Z,18.35
2018-05-16T19:01:20.375Z,23.23
2018-05-16T19:03:48.809Z,17.70
2018-05-16T19:06:18.615Z,23.42
2018-05-16T19:08:46.988Z,22.92
2018-05-16T19:11:15.254Z,17.35
2018-05-16T19:13:43.607Z,19.50
2018-05-16T19:16:11.909Z,19.20
2018-05-16T19:18:40.592Z,23.53
2018-05-16T19:21:09.702Z,17.12
2018-05-16T19:23:37.965Z,22.48
2018-05-16T19:26:06.361Z,17.10
2018-05-16T19:28:36.321Z,16.55
2018-05-16T19:31:04.652Z,17.15
2018-05-16T19:33:32.985Z,16.60
2018-05-16T19:36:01.308Z,23.27
2018-05-16T19:38:30.370Z,21.50
2018-05-16T19:40:59.594Z,24.87
2018-05-16T19:43:27.879Z,18.07
2018-05-16T19:45:56.198Z,21.02
2018-05-16T19:48:24.464Z,25.12
2018-05-16T19:50:52.799Z,19.83
2018-05-16T19:53:21.088Z,20.95
2018-05-16T19:55:49.406Z,22.05
2018-05-16T19:58:17.681Z,23.00
2018-05-16T20:00:46.031Z,21.23
2018-05-16T20:03:16.702Z,17.30
2018-05-16T20:05:45.022Z,20.62
2018-05-16T20:08:13.355Z,21.67
2018-05-16T20:10:41.627Z,21.60
2018-05-16T20:13:09.961Z,19.17
2018-05-16T20:15:38.220Z,16.13
2018-05-16T20:18:06.557Z,18.50
2018-05-16T20:20:34.877Z,18.97
2018-05-16T20:23:03.207Z,21.03
2018-05-16T20:25:31.495Z,17.40
2018-05-16T20:27:59.826Z,22.50
2018-05-16T20:30:28.121Z,19.67
2018-05-16T20:32:56.444Z,19.13
2018-05-16T20:35:25.450Z,21.63
2018-05-16T20:37:54.634Z,21.83
2018-05-16T20:40:22.954Z,18.17
2018-05-16T20:42:52.023Z,20.13
2018-05-16T20:45:20.346Z,19.90
2018-05-16T20:47:48.885Z,16.90
2018-05-16T20:50:17.158Z,19.83
2018-05-16T20:52:45.474Z,20.57
2018-05-16T20:55:14.519Z,20.03
2018-05-16T20:57:42.776Z,22.93
2018-05-16T21:00:11.064Z,18.15
2018-05-16T21:02:39.356Z,17.33
2018-05-16T21:05:07.633Z,19.57
2018-05-16T21:07:35.944Z,19.03
2018-05-16T21:10:05.085Z,19.87
2018-05-16T21:12:34.003Z,17.57
2018-05-16T21:15:02.286Z,18.20
2018-05-16T21:17:30.556Z,20.50
2018-05-16T21:20:00.007Z,19.47
2018-05-16T21:22:28.363Z,22.30
2018-05-16T21:24:57.438Z,19.73
2018-05-16T21:27:25.777Z,22.97
2018-05-16T21:29:54.165Z,22.50
2018-05-16T21:32:22.455Z,24.87
2018-05-16T21:34:50.718Z,19.33
2018-05-16T21:37:19.833Z,22.73
2018-05-16T21:39:48.119Z,18.83
2018-05-16T21:42:17.184Z,22.07
2018-05-16T21:44:46.247Z,21.12
2018-05-16T21:47:14.487Z,17.23
2018-05-16T21:49:43.547Z,16.80
2018-05-16T21:52:11.847Z,21.53
2018-05-16T21:54:40.129Z,19.33
2018-05-16T21:57:09.166Z,15.97
2018-05-16T21:59:37.468Z,19.60
2018-05-16T22:02:05.939Z,18.07
2018-05-16T22:04:34.347Z,20.90
2018-05-16T22:07:02.748Z,21.13
2018-05-16T22:09:31.039Z,18.47
2018-05-16T22:12:00.093Z,19.85
2018-05-16T22:14:28.388Z,19.53
2018-05-16T22:16:57.443Z,19.97
2018-05-16T22:19:25.764Z,22.00
2018-05-16T22:21:54.037Z,20.73
2018-05-16T22:24:22.319Z,27.97
2018-05-16T22:26:50.655Z,21.27
2018-05-16T22:29:18.977Z,21.10
2018-05-16T22:31:53.828Z,21.27
2018-05-16T22:34:28.613Z,19.60
2018-05-16T22:37:03.337Z,18.33
2018-05-16T22:39:37.262Z,18.50
2018-05-16T22:42:11.237Z,20.07
2018-05-16T22:44:46.416Z,17.03
2018-05-16T22:47:14.675Z,21.03
2018-05-16T22:49:43.051Z,22.73
2018-05-16T22:52:11.333Z,23.53
2018-05-16T22:54:40.361Z,21.23
2018-05-16T22:57:08.662Z,24.50
2018-05-16T22:59:36.952Z,21.47
2018-05-16T23:02:05.213Z,25.83
2018-05-16T23:04:33.491Z,23.87
2018-05-16T23:07:01.747Z,16.80
2018-05-16T23:09:30.071Z,26.10
2018-05-16T23:11:58.369Z,22.73
2018-05-16T23:14:27.381Z,22.17
2018-05-16T23:16:55.656Z,21.33
2018-05-16T23:19:23.900Z,27.30
2018-05-16T23:21:52.211Z,22.60
2018-05-16T23:24:21.955Z,22.17
2018-05-16T23:26:50.250Z,21.03
2018-05-16T23:29:18.500Z,24.60
2018-05-16T23:31:46.788Z,28.60
2018-05-16T23:34:16.086Z,25.67
2018-05-16T23:36:44.346Z,24.77
2018-05-16T23:39:12.661Z,27.47
2018-05-16T23:41:40.936Z,24.17
2018-05-16T23:44:09.248Z,26.70
2018-05-16T23:46:38.268Z,28.43
2018-05-16T23:49:06.583Z,24.77
2018-05-16T23:51:34.967Z,24.70
2018-05-16T23:54:03.279Z,26.97
2018-05-16T23:56:31.574Z,20.83
2018-05-16T23:59:00.676Z,22.93
